createdAt,value
2022-12-22T00:00:07.860Z,95.22
2022-12-22T00:01:28.278Z,86.32
2022-12-22T00:02:49.247Z,92.43
2022-12-22T00:04:10.594Z,109.07
2022-12-22T00:05:31.047Z,100.00
2022-12-22T00:06:51.801Z,123.65
2022-12-22T00:08:12.677Z,97.60
2022-12-22T00:09:33.461Z,123.28
2022-12-22T00:10:54.857Z,119.88
2022-12-22T00:12:16.016Z,105.55
2022-12-22T00:13:37.105Z,91.60
2022-12-22T00:14:58.040Z,98.22
2022-12-22T00:16:20.217Z,92.18
2022-12-22T00:17:40.849Z,119.97
2022-12-22T00:19:01.648Z,105.70
2022-12-22T00:20:22.305Z,98.63
2022-12-22T00:21:43.015Z,99.72
2022-12-22T00:23:04.332Z,117.07
2022-12-22T00:24:24.707Z,99.38
2022-12-22T00:25:45.870Z,102.30
2022-12-22T00:29:49.507Z,106.53
2022-12-22T00:31:10.312Z,92.25
2022-12-22T00:32:36.765Z,107.35
2022-12-22T00:33:58.284Z,98.78
2022-12-22T00:35:22.069Z,134.70
2022-12-22T00:36:43.792Z,95.50
2022-12-22T00:38:13.268Z,109.57
2022-12-22T00:39:33.755Z,122.07
2022-12-22T00:40:54.514Z,101.43
2022-12-22T00:42:15.459Z,115.75
2022-12-22T00:43:36.384Z,117.95
2022-12-22T00:44:57.083Z,110.82
2022-12-22T00:46:18.450Z,115.65
2022-12-22T00:47:41.153Z,105.22
2022-12-22T00:49:02.045Z,110.82
2022-12-22T00:50:28.137Z,119.35
2022-12-22T00:51:49.144Z,108.05
2022-12-22T00:53:10.465Z,110.47
2022-12-22T00:54:31.249Z,120.82
2022-12-22T00:55:51.772Z,103.38
2022-12-22T00:57:16.903Z,109.97
2022-12-22T00:58:37.475Z,106.38
2022-12-22T00:59:58.573Z,124.25
2022-12-22T01:01:19.146Z,121.63
2022-12-22T01:02:41.546Z,122.22
2022-12-22T01:04:02.235Z,111.95
2022-12-22T01:05:23.004Z,131.05
2022-12-22T01:06:44.095Z,126.35
2022-12-22T01:08:05.401Z,121.80
2022-12-22T01:09:26.183Z,129.30
2022-12-22T01:10:46.978Z,119.45
2022-12-22T01:12:11.680Z,120.63
2022-12-22T01:13:32.603Z,121.22
2022-12-22T01:14:53.441Z,122.15
2022-12-22T01:16:14.214Z,100.25
2022-12-22T01:17:34.963Z,122.85
2022-12-22T01:18:57.137Z,122.70
2022-12-22T01:20:17.679Z,116.47
2022-12-22T01:21:38.354Z,122.35
2022-12-22T01:22:59.017Z,124.40
2022-12-22T01:24:19.643Z,135.02
2022-12-22T01:25:40.324Z,130.30
2022-12-22T01:27:00.959Z,137.07
2022-12-22T01:28:21.469Z,132.67
2022-12-22T01:29:42.335Z,104.40
2022-12-22T01:31:14.781Z,115.30
2022-12-22T01:32:35.223Z,121.43
2022-12-22T01:33:57.346Z,125.57
2022-12-22T01:35:19.998Z,136.88
2022-12-22T01:36:40.961Z,128.93
2022-12-22T01:38:01.500Z,127.72
2022-12-22T01:39:22.348Z,114.82
2022-12-22T01:40:43.140Z,105.18
2022-12-22T01:42:03.986Z,100.28
2022-12-22T01:43:27.579Z,132.40
2022-12-22T01:44:48.114Z,138.27
2022-12-22T01:46:22.371Z,113.50
2022-12-22T01:47:42.891Z,120.18
2022-12-22T01:49:08.420Z,116.68
2022-12-22T01:50:32.598Z,96.20
2022-12-22T01:51:53.389Z,118.20
2022-12-22T01:53:20.056Z,126.90
2022-12-22T01:54:41.425Z,125.55
2022-12-22T01:56:02.183Z,123.22
2022-12-22T01:57:22.838Z,120.97
2022-12-22T01:58:46.506Z,137.50
2022-12-22T02:00:08.403Z,107.50
2022-12-22T02:01:29.959Z,99.47
2022-12-22T02:02:51.074Z,100.03
2022-12-22T02:04:14.195Z,102.25
2022-12-22T02:05:40.634Z,132.30
2022-12-22T02:07:11.708Z,109.78
2022-12-22T02:08:38.114Z,98.22
2022-12-22T02:10:09.931Z,109.97
2022-12-22T02:13:02.587Z,96.85
2022-12-22T02:14:30.809Z,105.20
2022-12-22T02:15:57.499Z,96.07
2022-12-22T02:17:24.291Z,91.70
2022-12-22T02:18:49.677Z,105.00
2022-12-22T02:20:30.678Z,97.82
2022-12-22T02:21:59.021Z,100.75
2022-12-22T02:23:34.606Z,90.68
2022-12-22T02:25:01.549Z,82.90
2022-12-22T02:26:27.563Z,95.90
2022-12-22T02:27:49.936Z,90.10
2022-12-22T02:29:11.180Z,90.93
2022-12-22T02:31:52.797Z,107.60
2022-12-22T02:33:13.168Z,108.47
2022-12-22T02:34:34.013Z,89.60
2022-12-22T02:36:00.670Z,96.10
2022-12-22T02:37:28.143Z,99.45
2022-12-22T02:38:55.239Z,95.95
2022-12-22T02:40:18.363Z,102.28
2022-12-22T02:41:45.543Z,93.32
2022-12-22T02:43:11.135Z,94.55
2022-12-22T02:44:39.257Z,96.65
2022-12-22T02:46:04.951Z,97.78
2022-12-22T02:47:31.965Z,102.72
2022-12-22T02:48:57.382Z,90.80
2022-12-22T02:50:23.137Z,85.88
2022-12-22T02:51:47.315Z,88.82
2022-12-22T02:53:08.651Z,89.28
2022-12-22T02:54:29.862Z,86.40
2022-12-22T02:55:50.340Z,82.78
2022-12-22T02:57:15.680Z,90.85
2022-12-22T02:58:36.211Z,85.68
2022-12-22T02:59:56.849Z,85.93
2022-12-22T03:01:17.963Z,100.63
2022-12-22T03:02:38.663Z,88.78
2022-12-22T03:03:59.401Z,86.60
2022-12-22T03:05:20.281Z,89.53
2022-12-22T03:06:40.658Z,90.40
2022-12-22T03:08:06.207Z,88.97
2022-12-22T03:09:29.012Z,92.10
2022-12-22T03:10:49.730Z,88.95
2022-12-22T03:12:12.008Z,92.18
2022-12-22T03:13:32.645Z,89.97
2022-12-22T03:14:53.511Z,80.13
2022-12-22T03:16:14.216Z,89.67
2022-12-22T03:17:34.854Z,85.50
2022-12-22T03:18:55.622Z,94.30
2022-12-22T03:20:16.715Z,95.45
2022-12-22T03:21:37.470Z,80.63
2022-12-22T03:23:03.623Z,90.70
2022-12-22T03:24:24.335Z,82.93
2022-12-22T03:25:47.759Z,87.30
2022-12-22T03:27:08.573Z,94.28
2022-12-22T03:28:30.657Z,88.80
2022-12-22T03:29:51.181Z,99.43
2022-12-22T03:31:12.517Z,106.88
2022-12-22T03:32:33.113Z,105.22
2022-12-22T03:33:53.888Z,94.97
2022-12-22T03:35:14.886Z,99.10
2022-12-22T03:36:35.201Z,98.43
2022-12-22T03:37:56.010Z,96.93
2022-12-22T03:39:17.084Z,100.28
2022-12-22T03:40:37.850Z,96.93
2022-12-22T03:41:58.508Z,93.20
2022-12-22T03:43:19.390Z,108.00
2022-12-22T03:44:41.042Z,105.82
2022-12-22T03:46:02.426Z,100.03
2022-12-22T03:47:22.882Z,104.05
2022-12-22T03:48:44.305Z,98.22
2022-12-22T03:50:05.832Z,112.68
2022-12-22T03:52:46.741Z,98.68
2022-12-22T03:54:08.419Z,109.47
2022-12-22T03:56:49.903Z,112.50
2022-12-22T03:58:10.349Z,108.55
2022-12-22T03:59:31.123Z,105.93
2022-12-22T04:00:53.016Z,112.40
2022-12-22T04:02:13.871Z,113.35
2022-12-22T04:03:34.493Z,105.47
2022-12-22T04:04:55.282Z,114.38
2022-12-22T04:06:16.394Z,99.03
2022-12-22T04:07:36.985Z,108.87
2022-12-22T04:08:57.693Z,147.63
2022-12-22T04:10:18.554Z,110.78
2022-12-22T04:11:39.319Z,155.73
2022-12-22T04:13:00.249Z,122.90
2022-12-22T04:14:20.583Z,132.18
2022-12-22T04:15:41.233Z,126.18
2022-12-22T04:17:04.517Z,108.10
2022-12-22T04:18:24.977Z,103.70
2022-12-22T04:19:45.695Z,106.38
2022-12-22T04:21:06.281Z,126.80
2022-12-22T04:22:27.005Z,113.72
2022-12-22T04:23:47.961Z,108.13
2022-12-22T04:25:09.429Z,105.30
2022-12-22T04:26:31.161Z,104.53
2022-12-22T04:29:12.369Z,103.47
2022-12-22T04:30:32.821Z,101.40
2022-12-22T04:31:53.722Z,123.50
2022-12-22T04:33:15.888Z,106.40
2022-12-22T04:34:36.500Z,104.53
2022-12-22T04:35:57.211Z,105.13
2022-12-22T04:37:18.127Z,96.00
2022-12-22T04:38:38.707Z,104.63
2022-12-22T04:39:59.243Z,94.22
2022-12-22T04:41:19.960Z,94.40
2022-12-22T04:42:40.658Z,84.43
2022-12-22T04:44:01.396Z,89.53
2022-12-22T04:45:21.934Z,93.25
2022-12-22T04:46:42.508Z,96.97
2022-12-22T04:48:03.218Z,86.78
2022-12-22T04:49:25.240Z,90.88
2022-12-22T04:50:45.850Z,90.32
2022-12-22T04:52:06.548Z,89.60
2022-12-22T04:53:28.346Z,93.07
2022-12-22T04:54:49.056Z,83.50
2022-12-22T04:56:10.231Z,88.93
2022-12-22T04:57:34.261Z,83.22
2022-12-22T04:58:57.534Z,77.38
2022-12-22T05:00:19.349Z,81.90
2022-12-22T05:01:40.144Z,85.28
2022-12-22T05:03:00.776Z,78.43
2022-12-22T05:04:23.844Z,85.03
2022-12-22T05:05:46.515Z,74.70
2022-12-22T05:07:07.280Z,87.25
2022-12-22T05:08:27.986Z,79.90
2022-12-22T05:09:48.610Z,71.18
2022-12-22T05:11:09.499Z,84.78
2022-12-22T05:12:30.185Z,68.47
2022-12-22T05:13:51.042Z,68.55
2022-12-22T05:15:12.026Z,65.28
2022-12-22T05:16:32.862Z,81.55
2022-12-22T05:17:53.546Z,71.07
2022-12-22T05:19:14.183Z,75.75
2022-12-22T05:20:36.057Z,84.78
2022-12-22T05:21:57.875Z,79.90
2022-12-22T05:23:18.210Z,78.68
2022-12-22T05:24:39.347Z,89.90
2022-12-22T05:25:59.989Z,87.60
2022-12-22T05:27:20.569Z,93.60
2022-12-22T05:28:42.281Z,90.75
2022-12-22T05:30:03.363Z,90.63
2022-12-22T05:31:25.192Z,94.63
2022-12-22T05:32:46.372Z,99.57
2022-12-22T05:35:27.576Z,100.28
2022-12-22T05:36:48.583Z,101.13
2022-12-22T05:38:10.790Z,106.75
2022-12-22T05:39:31.471Z,109.07
2022-12-22T05:40:53.138Z,95.00
2022-12-22T05:42:16.069Z,109.82
2022-12-22T05:43:37.081Z,82.60
2022-12-22T05:44:57.906Z,113.50
2022-12-22T05:46:18.431Z,96.25
2022-12-22T05:47:39.637Z,97.95
2022-12-22T05:49:00.526Z,108.65
2022-12-22T05:50:22.684Z,93.10
2022-12-22T05:51:43.053Z,99.75
2022-12-22T05:53:03.851Z,96.95
2022-12-22T05:54:26.020Z,105.78
2022-12-22T05:55:46.503Z,87.82
2022-12-22T05:57:07.175Z,98.95
2022-12-22T05:58:28.103Z,101.05
2022-12-22T05:59:48.880Z,78.05
2022-12-22T06:01:09.675Z,93.40
2022-12-22T06:02:30.531Z,80.95
2022-12-22T06:03:56.155Z,80.10
2022-12-22T06:05:20.783Z,78.55
2022-12-22T06:06:41.253Z,79.18
2022-12-22T06:08:02.171Z,75.28
2022-12-22T06:09:23.172Z,98.13
2022-12-22T06:10:45.331Z,83.85
2022-12-22T06:12:06.375Z,86.82
2022-12-22T06:13:26.947Z,77.65
2022-12-22T06:14:47.759Z,89.85
2022-12-22T06:16:08.658Z,72.22
2022-12-22T06:17:29.380Z,81.22
2022-12-22T06:18:50.184Z,80.28
2022-12-22T06:20:11.796Z,86.47
2022-12-22T06:21:32.531Z,97.28
2022-12-22T06:22:53.163Z,81.43
2022-12-22T06:24:13.929Z,82.43
2022-12-22T06:25:34.558Z,72.47
2022-12-22T06:26:56.522Z,73.80
2022-12-22T06:28:17.404Z,78.55
2022-12-22T06:29:38.212Z,81.10
2022-12-22T06:30:59.005Z,74.07
2022-12-22T06:32:19.841Z,64.88
2022-12-22T06:33:41.397Z,66.43
2022-12-22T06:35:01.923Z,60.65
2022-12-22T06:36:22.957Z,62.45
2022-12-22T06:37:43.491Z,60.95
2022-12-22T06:39:04.496Z,73.13
2022-12-22T06:40:24.831Z,66.90
2022-12-22T06:41:45.360Z,81.60
2022-12-22T06:43:09.763Z,63.58
2022-12-22T06:44:31.134Z,70.45
2022-12-22T06:45:51.594Z,58.63
2022-12-22T06:47:12.512Z,61.15
2022-12-22T06:48:33.058Z,61.65
2022-12-22T06:49:53.808Z,54.78
2022-12-22T06:51:14.656Z,51.78
2022-12-22T06:52:35.666Z,48.75
2022-12-22T06:53:56.275Z,46.00
2022-12-22T06:55:16.767Z,50.50
2022-12-22T06:56:37.600Z,49.90
2022-12-22T06:57:58.770Z,45.85
2022-12-22T06:59:20.810Z,52.75
2022-12-22T07:00:41.890Z,54.35
2022-12-22T07:02:02.587Z,47.10
2022-12-22T07:03:23.554Z,48.22
2022-12-22T07:04:45.623Z,44.88
2022-12-22T07:06:07.386Z,43.55
2022-12-22T07:07:27.947Z,50.10
2022-12-22T07:08:49.106Z,55.05
2022-12-22T07:10:10.183Z,53.25
2022-12-22T07:11:30.760Z,45.30
2022-12-22T07:12:51.585Z,52.10
2022-12-22T07:14:12.346Z,46.67
2022-12-22T07:15:34.641Z,50.22
2022-12-22T07:16:55.112Z,41.20
2022-12-22T07:18:15.935Z,46.90
2022-12-22T07:19:37.077Z,42.08
2022-12-22T07:20:58.095Z,49.03
2022-12-22T07:22:22.909Z,45.17
2022-12-22T07:23:48.383Z,46.75
2022-12-22T07:25:09.641Z,47.97
2022-12-22T07:26:30.689Z,50.92
2022-12-22T07:27:50.916Z,39.08
2022-12-22T07:29:11.545Z,38.67
2022-12-22T07:30:33.857Z,33.63
2022-12-22T07:31:54.827Z,64.25
2022-12-22T07:33:15.585Z,62.43
2022-12-22T07:34:35.989Z,114.57
2022-12-22T07:36:05.449Z,63.80
2022-12-22T07:37:26.119Z,55.28
2022-12-22T07:38:48.961Z,51.38
2022-12-22T07:40:10.674Z,59.78
2022-12-22T07:42:56.161Z,74.80
2022-12-22T07:44:17.213Z,49.95
2022-12-22T07:45:39.611Z,33.88
2022-12-22T07:47:00.260Z,64.57
2022-12-22T07:48:21.132Z,45.97
2022-12-22T07:49:41.833Z,36.53
2022-12-22T07:51:04.285Z,23.10
2022-12-22T07:52:24.979Z,32.40
2022-12-22T07:53:45.685Z,31.75
2022-12-22T07:55:08.104Z,25.17
2022-12-22T07:56:32.056Z,24.00
2022-12-22T07:57:53.739Z,28.55
2022-12-22T08:00:35.200Z,23.95
2022-12-22T08:01:57.418Z,22.55
2022-12-22T08:03:17.954Z,25.42
2022-12-22T08:04:38.997Z,27.63
2022-12-22T08:05:59.469Z,26.88
2022-12-22T08:07:20.187Z,29.10
2022-12-22T08:08:40.719Z,26.15
2022-12-22T08:10:01.293Z,22.48
2022-12-22T08:11:21.810Z,24.33
2022-12-22T08:12:42.745Z,21.65
2022-12-22T08:14:03.690Z,26.50
2022-12-22T08:15:24.374Z,22.80
2022-12-22T08:16:44.845Z,31.10
2022-12-22T08:18:07.365Z,25.30
2022-12-22T08:19:27.848Z,24.20
2022-12-22T08:20:49.617Z,23.17
2022-12-22T08:22:10.120Z,26.50
2022-12-22T08:23:31.696Z,23.30
2022-12-22T08:26:16.250Z,26.98
2022-12-22T08:27:41.441Z,23.38
2022-12-22T08:29:04.999Z,23.75
2022-12-22T08:30:25.754Z,28.05
2022-12-22T08:31:46.943Z,24.33
2022-12-22T08:33:09.182Z,27.73
2022-12-22T08:34:30.019Z,25.70
2022-12-22T08:35:50.393Z,23.85
2022-12-22T08:37:13.396Z,21.25
2022-12-22T08:38:34.876Z,25.30
2022-12-22T08:39:58.676Z,21.65
2022-12-22T08:41:19.383Z,23.55
2022-12-22T08:42:40.468Z,22.03
2022-12-22T08:44:01.280Z,18.23
2022-12-22T08:45:22.126Z,20.67
2022-12-22T08:46:42.891Z,21.88
2022-12-22T08:48:03.597Z,22.33
2022-12-22T08:49:25.998Z,27.30
2022-12-22T08:50:46.962Z,22.23
2022-12-22T08:52:10.545Z,23.30
2022-12-22T08:54:03.858Z,19.70
2022-12-22T08:55:15.510Z,24.13
2022-12-22T08:56:36.288Z,21.55
2022-12-22T08:57:56.548Z,25.65
2022-12-22T08:59:17.320Z,26.73
2022-12-22T09:00:38.178Z,20.90
2022-12-22T09:01:59.189Z,20.88
2022-12-22T09:03:20.326Z,20.35
2022-12-22T09:04:42.220Z,18.00
2022-12-22T09:06:02.910Z,21.65
2022-12-22T09:07:23.582Z,20.65
2022-12-22T09:08:44.306Z,27.08
2022-12-22T09:10:05.720Z,19.88
2022-12-22T09:11:26.489Z,20.05
2022-12-22T09:12:46.870Z,25.92
2022-12-22T09:14:09.250Z,25.38
2022-12-22T09:15:30.049Z,26.73
2022-12-22T09:16:50.924Z,23.05
2022-12-22T09:18:11.528Z,23.45
2022-12-22T09:19:32.160Z,24.58
2022-12-22T09:20:56.267Z,19.38
2022-12-22T09:22:21.740Z,21.77
2022-12-22T09:23:46.184Z,34.22
2022-12-22T09:25:07.765Z,20.20
2022-12-22T09:26:29.185Z,19.60
2022-12-22T09:27:49.661Z,13.45
2022-12-22T09:29:10.621Z,20.88
2022-12-22T09:30:30.911Z,17.80
2022-12-22T09:31:51.576Z,21.63
2022-12-22T09:33:12.257Z,23.37
2022-12-22T09:34:33.073Z,19.13
2022-12-22T09:35:53.816Z,26.23
2022-12-22T09:37:16.093Z,21.53
2022-12-22T09:38:37.084Z,21.70
2022-12-22T09:39:57.964Z,16.25
2022-12-22T09:41:20.877Z,24.00
2022-12-22T09:42:41.523Z,23.27
2022-12-22T09:44:03.538Z,16.95
2022-12-22T09:45:24.691Z,21.27
2022-12-22T09:46:45.323Z,21.75
2022-12-22T09:48:08.692Z,22.23
2022-12-22T09:49:29.051Z,21.13
2022-12-22T09:50:49.849Z,23.73
2022-12-22T09:52:24.031Z,14.38
2022-12-22T09:53:46.778Z,19.70
2022-12-22T09:55:14.426Z,17.02
2022-12-22T09:56:36.340Z,16.05
2022-12-22T09:57:57.216Z,22.40
2022-12-22T09:59:19.553Z,24.35
2022-12-22T10:00:40.035Z,18.10
2022-12-22T10:02:06.032Z,23.23
2022-12-22T10:03:33.430Z,22.23
2022-12-22T10:05:06.948Z,16.85
2022-12-22T10:06:34.167Z,17.92
2022-12-22T10:08:01.010Z,20.45
2022-12-22T10:11:05.488Z,22.55
2022-12-22T10:12:26.409Z,22.98
2022-12-22T10:13:47.055Z,14.70
2022-12-22T10:15:11.729Z,14.82
2022-12-22T10:16:34.730Z,18.30
2022-12-22T10:18:09.646Z,18.95
2022-12-22T10:19:30.230Z,19.35
2022-12-22T10:21:09.147Z,19.75
2022-12-22T10:22:31.441Z,21.42
2022-12-22T10:23:53.470Z,18.48
2022-12-22T10:26:00.573Z,15.73
2022-12-22T10:27:16.097Z,20.23
2022-12-22T10:28:39.049Z,19.15
2022-12-22T10:30:20.436Z,16.48
2022-12-22T10:31:58.115Z,19.70
2022-12-22T10:33:19.197Z,24.63
2022-12-22T10:34:59.046Z,19.20
2022-12-22T10:36:22.475Z,15.52
2022-12-22T10:37:42.979Z,27.38
2022-12-22T10:39:07.533Z,27.08
2022-12-22T10:40:28.464Z,25.40
2022-12-22T10:41:50.487Z,19.05
2022-12-22T10:43:18.645Z,21.27
2022-12-22T10:44:39.841Z,11.15
2022-12-22T10:46:01.379Z,15.00
2022-12-22T10:47:23.155Z,17.13
2022-12-22T10:48:43.602Z,14.30
2022-12-22T10:50:04.890Z,15.02
2022-12-22T10:52:51.500Z,15.65
2022-12-22T10:54:29.504Z,20.58
2022-12-22T10:56:05.023Z,22.52
2022-12-22T10:57:31.383Z,21.50
2022-12-22T10:58:54.133Z,19.38
2022-12-22T11:00:26.583Z,21.73
2022-12-22T11:01:48.977Z,23.65
2022-12-22T11:03:11.713Z,25.65
2022-12-22T11:04:32.085Z,27.50
2022-12-22T11:05:52.824Z,27.33
2022-12-22T11:07:13.807Z,35.93
2022-12-22T11:08:34.496Z,37.45
2022-12-22T11:09:56.537Z,39.40
2022-12-22T11:11:27.687Z,41.78
2022-12-22T11:13:11.257Z,38.05
2022-12-22T11:14:39.625Z,59.28
2022-12-22T11:16:03.427Z,66.18
2022-12-22T11:17:30.127Z,62.90
2022-12-22T11:19:01.453Z,60.25
2022-12-22T11:20:34.979Z,61.20
2022-12-22T11:22:00.413Z,64.70
2022-12-22T11:23:27.069Z,64.25
2022-12-22T11:24:55.418Z,66.68
2022-12-22T11:26:23.368Z,76.28
2022-12-22T11:27:50.134Z,59.70
2022-12-22T11:29:20.135Z,58.00
2022-12-22T11:30:47.212Z,59.47
2022-12-22T11:32:19.554Z,53.08
2022-12-22T11:33:47.922Z,54.50
2022-12-22T11:35:13.138Z,51.72
2022-12-22T11:36:40.565Z,56.22
2022-12-22T11:38:09.443Z,45.20
2022-12-22T11:39:37.945Z,48.50
2022-12-22T11:41:04.598Z,48.83
2022-12-22T11:42:40.029Z,42.92
2022-12-22T11:44:11.032Z,48.80
2022-12-22T11:45:43.402Z,40.58
2022-12-22T11:47:12.475Z,44.72
2022-12-22T11:48:51.054Z,58.10
2022-12-22T11:50:58.389Z,50.60
2022-12-22T11:52:20.246Z,65.18
2022-12-22T11:54:04.069Z,66.07
2022-12-22T11:55:32.712Z,65.00
2022-12-22T11:56:59.551Z,60.42
2022-12-22T11:58:31.719Z,59.47
2022-12-22T12:00:00.757Z,61.15
2022-12-22T12:01:34.681Z,57.58
2022-12-22T12:03:18.999Z,57.10
2022-12-22T12:04:56.022Z,68.65
2022-12-22T12:06:41.904Z,52.85
2022-12-22T12:08:09.387Z,68.35
2022-12-22T12:09:38.472Z,52.92
2022-12-22T12:11:07.453Z,56.10
2022-12-22T12:12:34.012Z,54.55
2022-12-22T12:14:02.633Z,55.22
2022-12-22T12:15:30.339Z,56.47
2022-12-22T12:16:55.812Z,55.10
2022-12-22T12:18:30.179Z,60.78
2022-12-22T12:20:13.137Z,43.25
2022-12-22T12:21:40.249Z,52.30
2022-12-22T12:23:13.080Z,55.72
2022-12-22T12:24:46.199Z,49.88
2022-12-22T12:26:10.437Z,54.15
2022-12-22T12:27:45.838Z,52.67
2022-12-22T12:29:13.827Z,56.40
2022-12-22T12:30:38.896Z,53.25
2022-12-22T12:32:05.489Z,57.30
2022-12-22T12:33:36.307Z,62.58
2022-12-22T12:35:01.778Z,59.55
2022-12-22T12:36:24.619Z,65.82
2022-12-22T12:37:48.511Z,58.83
2022-12-22T12:39:13.359Z,54.58
2022-12-22T12:40:39.952Z,57.05
2022-12-22T12:42:05.538Z,63.45
2022-12-22T12:43:26.433Z,54.40
2022-12-22T12:44:48.440Z,56.90
2022-12-22T12:46:43.784Z,62.67
2022-12-22T12:48:40.792Z,55.40
2022-12-22T12:50:03.518Z,59.00
2022-12-22T12:51:46.540Z,56.00
2022-12-22T12:53:09.035Z,51.78
2022-12-22T12:54:39.868Z,48.40
2022-12-22T12:56:03.101Z,51.05
2022-12-22T12:57:28.446Z,49.90
2022-12-22T12:58:53.734Z,46.17
2022-12-22T13:00:48.771Z,58.55
2022-12-22T13:02:35.632Z,54.40
2022-12-22T13:04:05.171Z,57.88
2022-12-22T13:05:31.934Z,50.05
2022-12-22T13:06:53.248Z,50.63
2022-12-22T13:08:19.117Z,50.42
2022-12-22T13:10:17.268Z,52.72
2022-12-22T13:12:11.095Z,55.20
2022-12-22T13:13:45.173Z,54.35
2022-12-22T13:15:28.283Z,56.70
2022-12-22T13:16:50.267Z,65.97
2022-12-22T13:18:41.817Z,60.90
2022-12-22T13:20:10.952Z,63.72
2022-12-22T13:21:55.294Z,60.17
2022-12-22T13:23:16.184Z,63.03
2022-12-22T13:24:49.000Z,60.63
2022-12-22T13:26:10.853Z,59.47
2022-12-22T13:27:31.964Z,62.20
2022-12-22T13:28:56.240Z,60.58
2022-12-22T13:30:18.674Z,58.78
2022-12-22T13:31:42.251Z,71.93
2022-12-22T13:33:11.310Z,59.58
2022-12-22T13:35:04.373Z,68.03
2022-12-22T13:36:28.127Z,64.15
2022-12-22T13:37:50.085Z,66.03
2022-12-22T13:39:13.278Z,59.83
2022-12-22T13:40:41.141Z,64.78
2022-12-22T13:42:01.564Z,58.22
2022-12-22T13:43:22.255Z,55.00
2022-12-22T13:44:42.831Z,61.20
2022-12-22T13:46:03.503Z,62.00
2022-12-22T13:47:23.985Z,70.88
2022-12-22T13:48:47.331Z,61.38
2022-12-22T13:50:16.258Z,63.72
2022-12-22T13:51:37.763Z,54.53
2022-12-22T13:52:58.781Z,62.47
2022-12-22T13:54:24.091Z,64.30
2022-12-22T13:55:46.778Z,63.47
2022-12-22T13:57:16.994Z,62.95
2022-12-22T13:58:39.351Z,66.65
2022-12-22T13:59:59.980Z,60.78
2022-12-22T14:01:20.767Z,58.38
2022-12-22T14:02:41.330Z,57.53
2022-12-22T14:04:04.457Z,60.00
2022-12-22T14:05:30.769Z,61.85
2022-12-22T14:06:51.693Z,59.55
2022-12-22T14:08:12.567Z,63.25
2022-12-22T14:09:33.191Z,72.28
2022-12-22T14:10:54.378Z,65.03
2022-12-22T14:12:16.896Z,69.30
2022-12-22T14:13:37.993Z,68.80
2022-12-22T14:15:00.126Z,68.65
2022-12-22T14:16:20.493Z,77.90
2022-12-22T14:17:46.180Z,70.30
2022-12-22T14:19:13.696Z,71.30
2022-12-22T14:20:40.273Z,74.68
2022-12-22T14:22:03.949Z,70.20
2022-12-22T14:23:28.089Z,67.60
2022-12-22T14:24:50.579Z,68.28
2022-12-22T14:26:16.090Z,66.70
2022-12-22T14:27:38.653Z,64.85
2022-12-22T14:28:59.518Z,64.22
2022-12-22T14:30:21.444Z,63.55
2022-12-22T14:31:52.561Z,76.40
2022-12-22T14:33:20.098Z,60.20
2022-12-22T14:34:53.153Z,78.32
2022-12-22T14:36:15.987Z,70.30
2022-12-22T14:37:36.609Z,73.82
2022-12-22T14:39:05.399Z,80.03
2022-12-22T14:40:31.536Z,69.50
2022-12-22T14:41:53.292Z,72.57
2022-12-22T14:43:26.418Z,76.55
2022-12-22T14:44:47.837Z,75.75
2022-12-22T14:47:29.232Z,76.03
2022-12-22T14:48:50.048Z,85.30
2022-12-22T14:50:17.257Z,75.85
2022-12-22T14:51:37.921Z,98.45
2022-12-22T14:52:59.965Z,84.28
2022-12-22T14:54:22.042Z,81.40
2022-12-22T14:55:42.904Z,93.28
2022-12-22T14:57:15.826Z,98.80
2022-12-22T14:58:39.796Z,80.60
2022-12-22T15:00:03.039Z,86.32
2022-12-22T15:01:25.690Z,97.53
2022-12-22T15:02:51.584Z,90.90
2022-12-22T15:04:17.544Z,100.70
2022-12-22T15:05:39.526Z,108.82
2022-12-22T15:07:37.255Z,100.28
2022-12-22T15:09:08.881Z,97.97
2022-12-22T15:10:35.872Z,121.15
2022-12-22T15:12:03.279Z,99.45
2022-12-22T15:13:24.737Z,96.10
2022-12-22T15:14:45.177Z,108.07
2022-12-22T15:16:05.808Z,101.88
2022-12-22T15:17:26.185Z,107.65
2022-12-22T15:18:48.061Z,94.90
2022-12-22T15:20:15.243Z,102.28
2022-12-22T15:21:37.100Z,100.00
2022-12-22T15:22:57.782Z,114.22
2022-12-22T15:24:18.928Z,102.68
2022-12-22T15:25:39.207Z,89.55
2022-12-22T15:26:59.746Z,89.35
2022-12-22T15:28:20.087Z,94.40
2022-12-22T15:29:40.726Z,93.65
2022-12-22T15:31:03.095Z,90.80
2022-12-22T15:33:45.321Z,132.13
2022-12-22T15:35:15.711Z,105.47
2022-12-22T15:36:37.725Z,87.55
2022-12-22T15:37:58.636Z,105.65
2022-12-22T15:39:20.924Z,90.97
2022-12-22T15:40:42.198Z,111.90
2022-12-22T15:42:02.589Z,96.03
2022-12-22T15:43:55.800Z,91.33
2022-12-22T15:45:03.830Z,89.45
2022-12-22T15:46:24.941Z,87.25
2022-12-22T15:47:47.756Z,83.45
2022-12-22T15:49:12.851Z,115.50
2022-12-22T15:50:39.061Z,116.00
2022-12-22T15:52:02.835Z,87.53
2022-12-22T15:53:23.914Z,111.07
2022-12-22T15:54:44.650Z,95.47
2022-12-22T15:56:05.891Z,94.78
2022-12-22T15:57:26.552Z,79.28
2022-12-22T15:58:47.232Z,76.13
2022-12-22T16:00:10.673Z,88.90
2022-12-22T16:01:31.132Z,91.03
2022-12-22T16:02:52.005Z,93.45
2022-12-22T16:04:12.834Z,113.13
2022-12-22T16:05:33.869Z,95.60
2022-12-22T16:06:54.511Z,101.13
2022-12-22T16:08:18.622Z,82.93
2022-12-22T16:09:41.114Z,76.55
2022-12-22T16:11:01.739Z,84.50
2022-12-22T16:12:22.565Z,93.53
2022-12-22T16:13:43.794Z,100.85
2022-12-22T16:15:04.864Z,102.80
2022-12-22T16:16:25.284Z,79.70
2022-12-22T16:17:45.946Z,98.68
2022-12-22T16:19:08.006Z,89.75
2022-12-22T16:21:56.076Z,88.82
2022-12-22T16:23:21.186Z,82.93
2022-12-22T16:24:43.746Z,83.15
2022-12-22T16:26:04.689Z,91.25
2022-12-22T16:27:25.048Z,105.63
2022-12-22T16:28:46.156Z,112.65
2022-12-22T16:30:07.717Z,115.37
2022-12-22T16:31:28.603Z,105.60
2022-12-22T16:32:49.006Z,114.90
2022-12-22T16:34:10.047Z,87.88
2022-12-22T16:35:30.991Z,123.75
2022-12-22T16:36:51.947Z,122.13
2022-12-22T16:38:18.237Z,111.75
2022-12-22T16:39:40.801Z,96.72
2022-12-22T16:41:01.296Z,100.88
2022-12-22T16:44:05.714Z,79.00
2022-12-22T16:45:30.515Z,133.18
2022-12-22T16:46:51.382Z,84.57
2022-12-22T16:48:13.879Z,85.70
2022-12-22T16:49:34.574Z,107.63
2022-12-22T16:50:55.152Z,96.80
2022-12-22T16:52:18.300Z,103.35
2022-12-22T16:53:38.928Z,87.80
2022-12-22T16:55:00.848Z,88.70
2022-12-22T16:56:23.014Z,100.88
2022-12-22T16:57:43.919Z,95.13
2022-12-22T16:59:04.404Z,76.37
2022-12-22T17:00:27.738Z,96.67
2022-12-22T17:01:51.903Z,93.28
2022-12-22T17:03:15.285Z,66.43
2022-12-22T17:04:36.121Z,86.97
2022-12-22T17:05:58.862Z,102.07
2022-12-22T17:07:19.869Z,80.05
2022-12-22T17:08:43.673Z,66.75
2022-12-22T17:10:06.478Z,63.25
2022-12-22T17:11:26.995Z,73.53
2022-12-22T17:12:49.737Z,69.18
2022-12-22T17:14:18.317Z,86.70
2022-12-22T17:15:38.903Z,80.50
2022-12-22T17:16:59.796Z,67.30
2022-12-22T17:18:22.266Z,73.50
2022-12-22T17:19:42.673Z,66.57
2022-12-22T17:21:03.316Z,61.38
2022-12-22T17:22:26.587Z,72.43
2022-12-22T17:23:49.907Z,84.68
2022-12-22T17:25:16.574Z,83.10
2022-12-22T17:26:37.216Z,86.18
2022-12-22T17:27:59.162Z,63.00
2022-12-22T17:29:22.196Z,70.60
2022-12-22T17:30:42.541Z,74.72
2022-12-22T17:32:03.526Z,56.95
2022-12-22T17:33:24.107Z,83.60
2022-12-22T17:34:46.983Z,76.63
2022-12-22T17:36:18.301Z,61.92
2022-12-22T17:39:00.345Z,63.80
2022-12-22T17:41:43.609Z,62.38
2022-12-22T17:43:03.917Z,68.72
2022-12-22T17:44:25.891Z,66.80
2022-12-22T17:45:47.270Z,71.97
2022-12-22T17:47:09.199Z,62.58
2022-12-22T17:48:29.623Z,72.28
2022-12-22T17:49:50.352Z,57.50
2022-12-22T17:51:19.000Z,56.17
2022-12-22T17:52:40.131Z,58.22
2022-12-22T17:54:00.635Z,53.58
2022-12-22T17:56:01.247Z,52.95
2022-12-22T17:57:12.863Z,68.90
2022-12-22T17:58:33.589Z,60.83
2022-12-22T17:59:54.520Z,61.78
2022-12-22T18:01:25.918Z,57.70
2022-12-22T18:02:46.823Z,46.97
2022-12-22T18:05:30.220Z,52.83
2022-12-22T18:06:50.842Z,50.17
2022-12-22T18:08:16.240Z,41.67
2022-12-22T18:09:37.128Z,40.97
2022-12-22T18:10:59.260Z,40.50
2022-12-22T18:12:21.347Z,46.88
2022-12-22T18:13:42.242Z,49.13
2022-12-22T18:15:03.179Z,43.03
2022-12-22T18:16:24.198Z,45.80
2022-12-22T18:17:45.304Z,39.42